createdAt,value
2019-02-10T00:00:18.261Z,9.00
2019-02-10T00:01:18.274Z,9.04
2019-02-10T00:02:18.238Z,9.13
2019-02-10T00:03:18.226Z,9.04
2019-02-10T00:04:18.216Z,9.01
2019-02-10T00:05:18.204Z,9.04
2019-02-10T00:06:24.478Z,9.04
2019-02-10T00:07:19.181Z,8.98
2019-02-10T00:08:18.173Z,9.12
2019-02-10T00:09:18.161Z,9.12
2019-02-10T00:10:18.148Z,9.01
2019-02-10T00:11:18.160Z,9.06
2019-02-10T00:12:18.126Z,9.04
2019-02-10T00:13:18.116Z,9.00
2019-02-10T00:14:18.103Z,9.01
2019-02-10T00:15:18.092Z,9.03
2019-02-10T00:16:18.107Z,9.00
2019-02-10T00:17:18.071Z,9.06
2019-02-10T00:18:18.059Z,9.04
2019-02-10T00:19:18.049Z,9.03
2019-02-10T00:20:18.041Z,9.06
2019-02-10T00:21:18.050Z,9.08
2019-02-10T00:22:18.015Z,9.01
2019-02-10T00:23:18.003Z,9.12
2019-02-10T00:24:17.993Z,9.08
2019-02-10T00:25:17.982Z,9.04
2019-02-10T00:26:17.994Z,9.06
2019-02-10T00:27:17.960Z,9.04
2019-02-10T00:28:17.948Z,9.03
2019-02-10T00:29:17.937Z,9.01
2019-02-10T00:30:17.926Z,9.00
2019-02-10T00:31:17.941Z,9.06
2019-02-10T00:32:17.903Z,9.06
2019-02-10T00:33:17.891Z,9.08
2019-02-10T00:34:17.881Z,8.98
2019-02-10T00:35:17.869Z,8.98
2019-02-10T00:36:17.884Z,8.96
2019-02-10T00:37:17.847Z,9.01
2019-02-10T00:38:17.839Z,8.93
2019-02-10T00:39:17.825Z,8.98
2019-02-10T00:40:17.824Z,8.97
2019-02-10T00:41:17.827Z,8.91
2019-02-10T00:42:17.791Z,8.96
2019-02-10T00:43:17.786Z,8.94
2019-02-10T00:44:17.773Z,8.98
2019-02-10T00:45:17.758Z,8.94
2019-02-10T00:46:17.774Z,8.98
2019-02-10T00:47:17.736Z,8.93
2019-02-10T00:48:17.725Z,8.98
2019-02-10T00:49:17.717Z,8.97
2019-02-10T00:50:17.703Z,8.98
2019-02-10T00:51:17.693Z,9.06
2019-02-10T00:52:17.706Z,9.08
2019-02-10T00:53:17.670Z,9.04
2019-02-10T00:54:17.658Z,9.06
2019-02-10T00:55:17.646Z,9.08
2019-02-10T00:56:17.637Z,9.10
2019-02-10T00:57:17.651Z,9.19
2019-02-10T00:58:17.614Z,9.15
2019-02-10T00:59:17.602Z,9.23
2019-02-10T01:00:17.591Z,9.17
2019-02-10T01:01:17.582Z,9.17
2019-02-10T01:02:17.598Z,9.22
2019-02-10T01:03:17.557Z,9.16
2019-02-10T01:04:17.545Z,9.16
2019-02-10T01:05:17.534Z,9.17
2019-02-10T01:06:17.525Z,9.15
2019-02-10T01:07:17.537Z,9.17
2019-02-10T01:08:17.501Z,9.17
2019-02-10T01:09:17.489Z,9.13
2019-02-10T01:10:17.481Z,9.22
2019-02-10T01:11:17.469Z,9.22
2019-02-10T01:12:17.483Z,9.10
2019-02-10T01:13:17.449Z,9.16
2019-02-10T01:14:17.437Z,9.19
2019-02-10T01:15:17.423Z,9.23
2019-02-10T01:16:17.412Z,9.19
2019-02-10T01:17:17.426Z,9.22
2019-02-10T01:18:17.392Z,9.20
2019-02-10T01:19:17.380Z,9.22
2019-02-10T01:20:17.368Z,9.24
2019-02-10T01:21:17.356Z,9.19
2019-02-10T01:22:17.369Z,9.16
2019-02-10T01:23:17.337Z,9.20
2019-02-10T01:24:17.326Z,9.22
2019-02-10T01:25:17.320Z,9.17
2019-02-10T01:26:17.300Z,9.22
2019-02-10T01:27:17.313Z,9.23
2019-02-10T01:28:17.279Z,9.23
2019-02-10T01:29:17.270Z,9.19
2019-02-10T01:30:17.257Z,9.16
2019-02-10T01:31:17.248Z,9.31
2019-02-10T01:32:17.256Z,9.17
2019-02-10T01:33:17.222Z,9.27
2019-02-10T01:34:17.211Z,9.20
2019-02-10T01:35:17.199Z,9.17
2019-02-10T01:36:17.190Z,9.17
2019-02-10T01:37:17.202Z,9.13
2019-02-10T01:38:17.166Z,9.04
2019-02-10T01:39:17.167Z,9.04
2019-02-10T01:40:17.143Z,9.06
2019-02-10T01:41:17.136Z,9.04
2019-02-10T01:42:17.144Z,9.06
2019-02-10T01:43:17.110Z,8.98
2019-02-10T01:44:17.099Z,8.97
2019-02-10T01:45:17.088Z,9.06
2019-02-10T01:46:17.077Z,8.94
2019-02-10T01:47:17.088Z,8.97
2019-02-10T01:48:17.056Z,8.91
2019-02-10T01:49:17.044Z,8.96
2019-02-10T01:50:17.033Z,9.00
2019-02-10T01:51:17.027Z,8.97
2019-02-10T01:52:17.034Z,8.96
2019-02-10T01:53:16.998Z,8.96
2019-02-10T01:54:16.987Z,8.94
2019-02-10T01:55:16.979Z,8.85
2019-02-10T01:56:16.965Z,8.82
2019-02-10T01:57:16.981Z,8.85
2019-02-10T01:58:16.943Z,8.79
2019-02-10T01:59:16.932Z,8.76
2019-02-10T02:00:16.922Z,8.75
2019-02-10T02:01:16.909Z,8.78
2019-02-10T02:02:16.925Z,8.78
2019-02-10T02:03:16.888Z,8.78
2019-02-10T02:04:16.878Z,8.73
2019-02-10T02:05:16.867Z,8.76
2019-02-10T02:06:16.853Z,8.65
2019-02-10T02:07:16.866Z,8.80
2019-02-10T02:08:16.836Z,8.78
2019-02-10T02:09:16.820Z,8.67
2019-02-10T02:10:16.809Z,8.75
2019-02-10T02:11:16.798Z,8.65
2019-02-10T02:12:16.813Z,8.71
2019-02-10T02:13:16.777Z,8.70
2019-02-10T02:14:16.764Z,8.65
2019-02-10T02:15:16.756Z,8.67
2019-02-10T02:16:16.742Z,8.64
2019-02-10T02:17:16.758Z,8.64
2019-02-10T02:18:16.721Z,8.65
2019-02-10T02:19:16.709Z,8.61
2019-02-10T02:20:16.697Z,8.64
2019-02-10T02:21:16.687Z,8.61
2019-02-10T02:22:16.701Z,8.61
2019-02-10T02:23:16.664Z,8.68
2019-02-10T02:24:16.653Z,8.63
2019-02-10T02:25:16.642Z,8.63
2019-02-10T02:26:16.631Z,8.58
2019-02-10T02:27:16.644Z,8.60
2019-02-10T02:28:16.610Z,8.63
2019-02-10T02:29:16.597Z,8.65
2019-02-10T02:30:16.591Z,8.57
2019-02-10T02:31:16.576Z,8.60
2019-02-10T02:32:16.565Z,8.61
2019-02-10T02:33:16.576Z,8.58
2019-02-10T02:34:16.542Z,8.55
2019-02-10T02:35:16.532Z,8.57
2019-02-10T02:36:16.520Z,8.55
2019-02-10T02:37:16.518Z,8.54
2019-02-10T02:38:16.522Z,8.46
2019-02-10T02:39:16.486Z,8.40
2019-02-10T02:40:16.477Z,8.42
2019-02-10T02:41:16.463Z,8.46
2019-02-10T02:42:16.454Z,8.45
2019-02-10T02:43:16.465Z,8.42
2019-02-10T02:44:16.440Z,8.42
2019-02-10T02:45:16.418Z,8.40
2019-02-10T02:46:16.417Z,8.43
2019-02-10T02:47:16.401Z,8.40
2019-02-10T02:48:16.441Z,8.43
2019-02-10T02:49:16.373Z,8.37
2019-02-10T02:50:16.363Z,8.42
2019-02-10T02:51:16.353Z,8.34
2019-02-10T02:52:16.349Z,8.42
2019-02-10T02:53:16.353Z,8.34
2019-02-10T02:54:16.319Z,8.34
2019-02-10T02:55:16.307Z,8.31
2019-02-10T02:56:16.298Z,8.27
2019-02-10T02:57:16.288Z,8.27
2019-02-10T02:58:16.298Z,8.25
2019-02-10T02:59:16.264Z,8.21
2019-02-10T03:00:16.251Z,8.17
2019-02-10T03:01:16.242Z,8.09
2019-02-10T03:02:16.230Z,8.04
2019-02-10T03:03:16.242Z,8.21
2019-02-10T03:04:16.208Z,8.00
2019-02-10T03:05:16.205Z,8.03
2019-02-10T03:06:16.187Z,8.06
2019-02-10T03:07:18.195Z,8.03
2019-02-10T03:08:16.186Z,8.07
2019-02-10T03:09:16.151Z,7.99
2019-02-10T03:10:16.148Z,7.94
2019-02-10T03:11:16.129Z,7.94
2019-02-10T03:12:16.119Z,7.91
2019-02-10T03:13:16.134Z,7.86
2019-02-10T03:14:16.098Z,7.95
2019-02-10T03:15:16.086Z,7.82
2019-02-10T03:16:16.075Z,7.79
2019-02-10T03:17:16.062Z,7.84
2019-02-10T03:18:16.076Z,7.82
2019-02-10T03:19:16.042Z,7.88
2019-02-10T03:20:16.033Z,7.82
2019-02-10T03:21:16.020Z,7.86
2019-02-10T03:22:16.008Z,7.82
2019-02-10T03:23:16.023Z,7.86
2019-02-10T03:24:15.994Z,7.81
2019-02-10T03:25:15.976Z,7.82
2019-02-10T03:26:15.962Z,7.84
2019-02-10T03:27:15.957Z,7.85
2019-02-10T03:28:15.966Z,7.85
2019-02-10T03:29:15.935Z,7.77
2019-02-10T03:30:15.967Z,7.85
2019-02-10T03:31:15.914Z,7.79
2019-02-10T03:32:15.896Z,7.77
2019-02-10T03:33:15.916Z,7.81
2019-02-10T03:34:15.874Z,7.79
2019-02-10T03:35:15.867Z,7.86
2019-02-10T03:36:15.853Z,7.88
2019-02-10T03:37:15.839Z,7.88
2019-02-10T03:38:15.854Z,7.62
2019-02-10T03:39:15.817Z,7.74
2019-02-10T03:40:15.813Z,7.79
2019-02-10T03:41:15.795Z,7.74
2019-02-10T03:42:15.785Z,7.77
2019-02-10T03:43:15.796Z,7.63
2019-02-10T03:44:15.762Z,7.76
2019-02-10T03:45:15.750Z,7.73
2019-02-10T03:46:15.741Z,7.81
2019-02-10T03:47:15.730Z,7.71
2019-02-10T03:48:15.742Z,7.73
2019-02-10T03:49:15.706Z,7.69
2019-02-10T03:50:15.702Z,7.69
2019-02-10T03:51:15.687Z,7.69
2019-02-10T03:52:15.673Z,7.67
2019-02-10T03:53:15.686Z,7.69
2019-02-10T03:54:15.651Z,7.67
2019-02-10T03:55:15.640Z,7.70
2019-02-10T03:56:15.630Z,7.66
2019-02-10T03:57:15.619Z,7.67
2019-02-10T03:58:15.630Z,7.62
2019-02-10T03:59:15.596Z,7.62
2019-02-10T04:00:15.586Z,7.66
2019-02-10T04:01:15.579Z,7.67
2019-02-10T04:02:15.566Z,7.66
2019-02-10T04:03:15.574Z,7.63
2019-02-10T04:04:15.540Z,7.62
2019-02-10T04:05:15.530Z,7.63
2019-02-10T04:06:15.516Z,7.57
2019-02-10T04:07:15.507Z,7.57
2019-02-10T04:08:15.519Z,7.54
2019-02-10T04:09:15.485Z,7.55
2019-02-10T04:10:15.473Z,7.58
2019-02-10T04:11:15.464Z,7.58
2019-02-10T04:12:15.451Z,7.62
2019-02-10T04:13:15.444Z,7.58
2019-02-10T04:14:15.457Z,7.60
2019-02-10T04:15:15.417Z,7.62
2019-02-10T04:16:15.405Z,7.67
2019-02-10T04:17:15.406Z,7.62
2019-02-10T04:18:15.409Z,7.55
2019-02-10T04:19:15.373Z,7.66
2019-02-10T04:20:15.360Z,7.62
2019-02-10T04:21:15.349Z,7.60
2019-02-10T04:22:15.343Z,7.55
2019-02-10T04:23:15.330Z,7.54
2019-02-10T04:24:15.341Z,7.55
2019-02-10T04:25:15.322Z,7.60
2019-02-10T04:26:15.295Z,7.57
2019-02-10T04:27:15.288Z,7.52
2019-02-10T04:28:15.276Z,7.50
2019-02-10T04:29:15.285Z,7.60
2019-02-10T04:30:15.252Z,7.55
2019-02-10T04:31:15.239Z,7.50
2019-02-10T04:32:15.228Z,7.51
2019-02-10T04:33:15.218Z,7.60
2019-02-10T04:34:15.242Z,7.55
2019-02-10T04:35:15.197Z,7.52
2019-02-10T04:36:15.192Z,7.55
2019-02-10T04:37:15.172Z,7.62
2019-02-10T04:38:15.163Z,7.57
2019-02-10T04:39:15.176Z,7.58
2019-02-10T04:40:15.139Z,7.58
2019-02-10T04:41:15.130Z,7.60
2019-02-10T04:42:15.117Z,7.67
2019-02-10T04:43:15.107Z,7.67
2019-02-10T04:44:15.120Z,7.58
2019-02-10T04:45:15.086Z,7.69
2019-02-10T04:46:15.086Z,7.71
2019-02-10T04:47:15.062Z,7.77
2019-02-10T04:48:15.051Z,7.76
2019-02-10T04:49:15.063Z,7.76
2019-02-10T04:50:15.028Z,7.71
2019-02-10T04:51:15.019Z,7.66
2019-02-10T04:52:15.005Z,7.70
2019-02-10T04:53:14.995Z,7.77
2019-02-10T04:54:15.013Z,7.79
2019-02-10T04:55:14.972Z,7.84
2019-02-10T04:56:14.967Z,7.81
2019-02-10T04:57:14.951Z,7.89
2019-02-10T04:58:14.940Z,7.88
2019-02-10T04:59:14.952Z,7.88
2019-02-10T05:00:14.919Z,7.85
2019-02-10T05:01:14.906Z,7.85
2019-02-10T05:02:14.894Z,7.85
2019-02-10T05:03:14.887Z,7.84
2019-02-10T05:04:14.899Z,7.89
2019-02-10T05:05:14.865Z,7.88
2019-02-10T05:06:14.853Z,7.84
2019-02-10T05:07:14.841Z,7.92
2019-02-10T05:08:14.833Z,7.94
2019-02-10T05:09:14.847Z,7.91
2019-02-10T05:10:14.807Z,8.00
2019-02-10T05:11:14.795Z,8.02
2019-02-10T05:12:14.786Z,8.04
2019-02-10T05:13:14.774Z,8.06
2019-02-10T05:14:14.786Z,8.00
2019-02-10T05:15:14.754Z,8.06
2019-02-10T05:16:14.741Z,8.09
2019-02-10T05:17:14.733Z,8.03
2019-02-10T05:18:14.718Z,8.06
2019-02-10T05:19:14.731Z,8.07
2019-02-10T05:20:14.695Z,8.00
2019-02-10T05:21:14.689Z,8.03
2019-02-10T05:22:14.673Z,8.03
2019-02-10T05:23:14.662Z,8.12
2019-02-10T05:24:14.681Z,8.14
2019-02-10T05:25:14.643Z,8.10
2019-02-10T05:26:14.629Z,8.20
2019-02-10T05:27:14.619Z,8.21
2019-02-10T05:28:14.609Z,8.10
2019-02-10T05:29:14.619Z,8.12
2019-02-10T05:30:14.586Z,8.18
2019-02-10T05:31:14.575Z,8.25
2019-02-10T05:32:14.562Z,8.20
2019-02-10T05:33:14.553Z,8.22
2019-02-10T05:34:14.567Z,8.18
2019-02-10T05:35:14.532Z,8.32
2019-02-10T05:36:14.518Z,8.31
2019-02-10T05:37:14.507Z,8.36
2019-02-10T05:38:14.495Z,8.32
2019-02-10T05:39:14.510Z,8.37
2019-02-10T05:40:14.482Z,8.29
2019-02-10T05:41:14.477Z,8.32
2019-02-10T05:42:14.452Z,8.36
2019-02-10T05:43:14.440Z,8.43
2019-02-10T05:44:14.453Z,8.42
2019-02-10T05:45:14.417Z,8.40
2019-02-10T05:46:14.406Z,8.46
2019-02-10T05:47:14.395Z,8.40
2019-02-10T05:48:14.388Z,8.39
2019-02-10T05:49:14.398Z,8.49
2019-02-10T05:50:14.367Z,8.49
2019-02-10T05:51:14.353Z,8.50
2019-02-10T05:52:14.339Z,8.43
2019-02-10T05:53:14.330Z,8.55
2019-02-10T05:54:14.340Z,8.58
2019-02-10T05:55:14.323Z,8.58
2019-02-10T05:56:14.298Z,8.64
2019-02-10T05:57:14.285Z,8.67
2019-02-10T05:58:14.275Z,8.60
2019-02-10T05:59:14.263Z,8.60
2019-02-10T06:00:14.275Z,8.60
2019-02-10T06:01:14.240Z,8.71
2019-02-10T06:02:14.229Z,8.75
2019-02-10T06:03:14.216Z,8.75
2019-02-10T06:04:14.212Z,8.78
2019-02-10T06:05:14.220Z,8.85
2019-02-10T06:06:14.187Z,8.96
2019-02-10T06:07:16.372Z,8.93
2019-02-10T06:08:14.162Z,9.00
2019-02-10T06:09:14.154Z,9.06
2019-02-10T06:10:14.164Z,9.20
2019-02-10T06:11:14.129Z,9.27
2019-02-10T06:12:14.121Z,9.34
2019-02-10T06:13:14.106Z,9.55
2019-02-10T06:14:14.097Z,9.68
2019-02-10T06:15:14.109Z,9.77
2019-02-10T06:16:14.072Z,9.75
2019-02-10T06:17:14.061Z,9.88
2019-02-10T06:18:14.054Z,9.96
2019-02-10T06:19:14.040Z,10.01
2019-02-10T06:20:14.053Z,10.01
2019-02-10T06:21:14.020Z,10.07
2019-02-10T06:22:14.005Z,10.06
2019-02-10T06:23:13.995Z,10.10
2019-02-10T06:24:13.983Z,10.10
2019-02-10T06:25:13.996Z,10.10
2019-02-10T06:26:13.961Z,9.99
2019-02-10T06:27:13.948Z,10.10
2019-02-10T06:28:13.957Z,10.11
2019-02-10T06:29:13.927Z,10.10
2019-02-10T06:30:13.947Z,10.14
2019-02-10T06:31:13.905Z,10.10
2019-02-10T06:32:13.896Z,10.16
2019-02-10T06:33:13.891Z,10.13
2019-02-10T06:34:13.874Z,10.13
2019-02-10T06:35:13.883Z,10.20
2019-02-10T06:36:13.852Z,10.20
2019-02-10T06:37:13.847Z,10.25
2019-02-10T06:38:21.915Z,10.31
2019-02-10T06:39:14.815Z,10.26
2019-02-10T06:40:13.838Z,10.22
2019-02-10T06:41:13.793Z,10.20
2019-02-10T06:42:13.784Z,10.11
2019-02-10T06:43:13.770Z,10.20
2019-02-10T06:44:13.759Z,10.24
2019-02-10T06:45:13.773Z,10.20
2019-02-10T06:46:13.739Z,10.20
2019-02-10T06:47:13.726Z,10.28
2019-02-10T06:48:13.714Z,10.20
2019-02-10T06:49:13.703Z,10.20
2019-02-10T06:50:13.715Z,10.11
2019-02-10T06:51:13.688Z,10.17
2019-02-10T06:52:13.670Z,10.18
2019-02-10T06:53:13.663Z,10.11
2019-02-10T06:54:13.649Z,10.14
2019-02-10T06:55:13.661Z,10.11
2019-02-10T06:56:13.625Z,10.16
2019-02-10T06:57:13.614Z,10.22
2019-02-10T06:58:13.603Z,10.20
2019-02-10T06:59:13.594Z,10.26
2019-02-10T07:00:13.606Z,10.22
2019-02-10T07:01:13.571Z,10.24
2019-02-10T07:02:13.558Z,10.14
2019-02-10T07:03:13.549Z,10.18
2019-02-10T07:04:13.538Z,10.22
2019-02-10T07:05:13.549Z,10.28
2019-02-10T07:06:13.515Z,10.25
2019-02-10T07:07:13.504Z,10.29
2019-02-10T07:08:13.494Z,10.29
2019-02-10T07:09:13.482Z,10.25
2019-02-10T07:10:13.497Z,10.17
2019-02-10T07:11:13.458Z,10.22
2019-02-10T07:12:13.448Z,10.20
2019-02-10T07:13:13.436Z,10.22
2019-02-10T07:14:13.425Z,10.31
2019-02-10T07:15:13.438Z,10.43
2019-02-10T07:16:13.402Z,10.32
2019-02-10T07:17:13.391Z,10.31
2019-02-10T07:18:13.382Z,10.32
2019-02-10T07:19:13.369Z,10.29
2019-02-10T07:20:13.382Z,10.29
2019-02-10T07:21:13.349Z,10.31
2019-02-10T07:22:13.338Z,10.32
2019-02-10T07:23:13.326Z,10.32
2019-02-10T07:24:13.313Z,10.34
2019-02-10T07:25:13.329Z,10.34
2019-02-10T07:26:13.291Z,10.29
2019-02-10T07:27:13.281Z,10.35
2019-02-10T07:28:13.273Z,10.31
2019-02-10T07:29:13.259Z,10.29
2019-02-10T07:30:13.271Z,10.36
2019-02-10T07:31:13.235Z,10.31
2019-02-10T07:32:13.225Z,10.42
2019-02-10T07:33:13.213Z,10.39
2019-02-10T07:34:13.205Z,10.42
2019-02-10T07:35:13.216Z,10.31
2019-02-10T07:36:13.181Z,10.31
2019-02-10T07:37:13.219Z,10.28
2019-02-10T07:38:13.160Z,10.26
2019-02-10T07:39:13.146Z,10.36
2019-02-10T07:40:13.159Z,10.38
2019-02-10T07:41:13.124Z,10.42
2019-02-10T07:42:13.113Z,10.42
2019-02-10T07:43:13.101Z,10.54
2019-02-10T07:44:13.091Z,10.46
2019-02-10T07:45:13.083Z,10.51
2019-02-10T07:46:13.092Z,10.47
2019-02-10T07:47:13.058Z,10.52
2019-02-10T07:48:13.048Z,10.51
2019-02-10T07:49:13.035Z,10.55
2019-02-10T07:50:13.026Z,10.51
2019-02-10T07:51:13.036Z,10.52
2019-02-10T07:52:13.001Z,10.47
2019-02-10T07:53:12.989Z,10.47
2019-02-10T07:54:12.982Z,10.54
2019-02-10T07:55:12.971Z,10.52
2019-02-10T07:56:12.980Z,10.47
2019-02-10T07:57:12.948Z,10.49
2019-02-10T07:58:12.934Z,10.54
2019-02-10T07:59:12.923Z,10.55
2019-02-10T08:00:12.913Z,10.57
2019-02-10T08:01:12.924Z,10.62
2019-02-10T08:02:12.890Z,10.55
2019-02-10T08:03:12.879Z,10.54
2019-02-10T08:04:12.868Z,10.55
2019-02-10T08:05:12.855Z,10.55
2019-02-10T08:06:12.869Z,10.55
2019-02-10T08:07:12.834Z,10.57
2019-02-10T08:08:12.822Z,10.49
2019-02-10T08:09:12.815Z,10.60
2019-02-10T08:10:12.800Z,10.63
2019-02-10T08:11:12.814Z,10.55
2019-02-10T08:12:12.779Z,10.62
2019-02-10T08:13:12.767Z,10.70
2019-02-10T08:14:12.755Z,10.70
2019-02-10T08:15:12.746Z,10.68
2019-02-10T08:16:12.757Z,10.72
2019-02-10T08:17:12.722Z,10.69
2019-02-10T08:18:12.710Z,10.70
2019-02-10T08:19:12.700Z,10.69
2019-02-10T08:20:12.690Z,10.75
2019-02-10T08:21:12.704Z,10.76
2019-02-10T08:22:12.665Z,10.70
2019-02-10T08:23:12.655Z,10.78
2019-02-10T08:24:12.644Z,10.78
2019-02-10T08:25:12.633Z,10.78
2019-02-10T08:26:12.656Z,10.80
2019-02-10T08:27:12.610Z,10.75
2019-02-10T08:28:12.599Z,10.81
2019-02-10T08:29:12.587Z,10.81
2019-02-10T08:30:12.582Z,10.75
2019-02-10T08:31:12.589Z,10.81
2019-02-10T08:32:12.555Z,10.81
2019-02-10T08:33:12.545Z,10.78
2019-02-10T08:34:12.532Z,10.78
2019-02-10T08:35:12.522Z,10.78
2019-02-10T08:36:12.533Z,10.84
2019-02-10T08:37:12.499Z,10.75
2019-02-10T08:38:12.488Z,10.81
2019-02-10T08:39:12.478Z,10.86
2019-02-10T08:40:12.465Z,10.84
2019-02-10T08:41:12.482Z,10.91
2019-02-10T08:42:12.443Z,10.91
2019-02-10T08:43:12.431Z,10.94
2019-02-10T08:44:12.421Z,10.84
2019-02-10T08:45:12.408Z,10.94
2019-02-10T08:46:12.422Z,10.95
2019-02-10T08:47:12.386Z,10.94
2019-02-10T08:48:12.378Z,10.99
2019-02-10T08:49:12.365Z,10.94
2019-02-10T08:50:12.354Z,10.99
2019-02-10T08:51:12.367Z,10.95
2019-02-10T08:52:12.330Z,10.98
2019-02-10T08:53:12.322Z,10.95
2019-02-10T08:54:12.310Z,10.99
2019-02-10T08:55:12.297Z,10.95
2019-02-10T08:56:12.310Z,10.99
2019-02-10T08:57:12.278Z,11.05
2019-02-10T08:58:12.264Z,11.01
2019-02-10T08:59:12.252Z,11.09
2019-02-10T09:00:12.250Z,11.01
2019-02-10T09:01:12.254Z,11.05
2019-02-10T09:02:12.218Z,11.03
2019-02-10T09:03:19.379Z,11.03
2019-02-10T09:04:13.196Z,11.03
2019-02-10T09:05:12.186Z,11.02
2019-02-10T09:06:12.202Z,11.01
2019-02-10T09:07:12.168Z,11.03
2019-02-10T09:08:12.155Z,11.08
2019-02-10T09:09:12.140Z,11.01
2019-02-10T09:10:12.134Z,11.08
2019-02-10T09:11:12.143Z,11.05
2019-02-10T09:12:12.107Z,11.11
2019-02-10T09:13:12.100Z,11.06
2019-02-10T09:14:12.086Z,11.01
2019-02-10T09:15:12.077Z,11.01
2019-02-10T09:16:12.086Z,11.01
2019-02-10T09:17:12.051Z,11.03
2019-02-10T09:18:12.045Z,11.03
2019-02-10T09:19:12.031Z,10.98
2019-02-10T09:20:12.018Z,11.05
2019-02-10T09:21:12.008Z,10.98
2019-02-10T09:22:12.020Z,10.95
2019-02-10T09:23:11.985Z,11.03
2019-02-10T09:24:11.974Z,10.98
2019-02-10T09:25:11.964Z,10.98
2019-02-10T09:26:11.953Z,10.99
2019-02-10T09:27:11.963Z,10.99
2019-02-10T09:28:11.930Z,11.02
2019-02-10T09:29:11.918Z,11.09
2019-02-10T09:30:11.909Z,11.08
2019-02-10T09:31:11.897Z,11.02
2019-02-10T09:32:11.908Z,11.01
2019-02-10T09:33:11.881Z,10.95
2019-02-10T09:34:11.877Z,10.99
2019-02-10T09:35:11.852Z,10.93
2019-02-10T09:36:11.886Z,10.81
2019-02-10T09:37:11.854Z,10.81
2019-02-10T09:38:11.819Z,10.88
2019-02-10T09:39:11.806Z,10.83
2019-02-10T09:40:11.803Z,10.80
2019-02-10T09:41:11.787Z,10.72
2019-02-10T09:42:11.800Z,10.66
2019-02-10T09:43:11.761Z,10.70
2019-02-10T09:44:11.751Z,10.70
2019-02-10T09:45:11.742Z,10.66
2019-02-10T09:46:11.732Z,10.62
2019-02-10T09:47:11.740Z,10.58
2019-02-10T09:48:11.705Z,10.57
2019-02-10T09:49:11.695Z,10.58
2019-02-10T09:50:11.683Z,10.57
2019-02-10T09:51:11.673Z,10.58
2019-02-10T09:52:11.689Z,10.58
2019-02-10T09:53:11.654Z,10.52
2019-02-10T09:54:11.639Z,10.60
2019-02-10T09:55:11.627Z,10.55
2019-02-10T09:56:11.618Z,10.63
2019-02-10T09:57:11.629Z,10.63
2019-02-10T09:58:11.595Z,10.55
2019-02-10T09:59:11.583Z,10.63
2019-02-10T10:00:11.571Z,10.62
2019-02-10T10:01:11.563Z,10.55
2019-02-10T10:02:11.573Z,10.58
2019-02-10T10:03:11.538Z,10.58
2019-02-10T10:04:11.526Z,10.63
2019-02-10T10:05:11.516Z,10.57
2019-02-10T10:06:11.507Z,10.55
2019-02-10T10:07:11.517Z,10.58
2019-02-10T10:08:11.482Z,10.57
2019-02-10T10:09:18.749Z,10.54
2019-02-10T10:10:12.458Z,10.54
2019-02-10T10:11:11.449Z,10.60
2019-02-10T10:12:11.462Z,10.62
2019-02-10T10:13:11.428Z,10.63
2019-02-10T10:14:11.416Z,10.63
2019-02-10T10:15:11.405Z,10.58
2019-02-10T10:16:11.396Z,10.62
2019-02-10T10:17:11.406Z,10.57
2019-02-10T10:18:11.390Z,10.63
2019-02-10T10:19:11.359Z,10.63
2019-02-10T10:20:11.352Z,10.60
2019-02-10T10:21:11.340Z,10.57
2019-02-10T10:22:11.349Z,10.65
2019-02-10T10:23:11.314Z,10.57
2019-02-10T10:24:11.304Z,10.57
2019-02-10T10:25:11.294Z,10.68
2019-02-10T10:26:11.281Z,10.52
2019-02-10T10:27:11.294Z,10.63
2019-02-10T10:28:11.259Z,10.65
2019-02-10T10:29:11.247Z,10.58
2019-02-10T10:30:11.236Z,10.62
2019-02-10T10:31:11.225Z,10.58
2019-02-10T10:32:11.238Z,10.57
2019-02-10T10:33:11.204Z,10.58
2019-02-10T10:34:11.198Z,10.57
2019-02-10T10:35:11.181Z,10.60
2019-02-10T10:36:11.171Z,10.57
2019-02-10T10:37:11.184Z,10.57
2019-02-10T10:38:11.151Z,10.63
2019-02-10T10:39:11.136Z,10.63
2019-02-10T10:40:11.125Z,10.62
2019-02-10T10:41:11.114Z,10.70
2019-02-10T10:42:11.126Z,10.66
2019-02-10T10:43:11.094Z,10.69
2019-02-10T10:44:11.080Z,10.68
2019-02-10T10:45:11.072Z,10.63
2019-02-10T10:46:11.058Z,10.72
2019-02-10T10:47:11.076Z,10.68
2019-02-10T10:48:11.036Z,10.66
2019-02-10T10:49:11.025Z,10.72
2019-02-10T10:50:11.013Z,10.73
2019-02-10T10:51:11.003Z,10.73
2019-02-10T10:52:11.015Z,10.65
2019-02-10T10:53:10.984Z,10.68
2019-02-10T10:54:10.971Z,10.72
2019-02-10T10:55:10.957Z,10.80
2019-02-10T10:56:10.946Z,10.66
2019-02-10T10:57:10.959Z,10.70
2019-02-10T10:58:10.923Z,10.78
2019-02-10T10:59:10.916Z,10.68
2019-02-10T11:00:10.902Z,10.69
2019-02-10T11:01:10.892Z,10.76
2019-02-10T11:02:10.903Z,10.68
2019-02-10T11:03:10.870Z,10.73
2019-02-10T11:04:10.857Z,10.75
2019-02-10T11:05:10.848Z,10.78
2019-02-10T11:06:10.838Z,10.68
2019-02-10T11:07:10.825Z,10.68
2019-02-10T11:08:10.836Z,10.68
2019-02-10T11:09:10.800Z,10.60
2019-02-10T11:10:10.789Z,10.58
2019-02-10T11:11:10.779Z,10.58
2019-02-10T11:12:10.771Z,10.60
2019-02-10T11:13:10.783Z,10.60
2019-02-10T11:14:10.745Z,10.57
2019-02-10T11:15:10.734Z,10.58
2019-02-10T11:16:10.723Z,10.62
2019-02-10T11:17:10.717Z,10.63
2019-02-10T11:18:10.729Z,10.57
2019-02-10T11:19:10.690Z,10.55
2019-02-10T11:20:10.685Z,10.60
2019-02-10T11:21:10.668Z,10.62
2019-02-10T11:22:10.659Z,10.58
2019-02-10T11:23:10.668Z,10.66
2019-02-10T11:24:10.634Z,10.52
2019-02-10T11:25:10.622Z,10.52
2019-02-10T11:26:10.612Z,10.62
2019-02-10T11:27:10.600Z,10.55
2019-02-10T11:28:10.613Z,10.62
2019-02-10T11:29:10.578Z,10.55
2019-02-10T11:30:10.568Z,10.57
2019-02-10T11:31:10.555Z,10.57
2019-02-10T11:32:10.545Z,10.58
2019-02-10T11:33:10.557Z,10.65
2019-02-10T11:34:10.522Z,10.57
2019-02-10T11:35:10.511Z,10.66
2019-02-10T11:36:10.501Z,10.60
2019-02-10T11:37:10.490Z,10.58
2019-02-10T11:38:10.502Z,10.69
2019-02-10T11:39:10.469Z,10.58
2019-02-10T11:40:10.461Z,10.58
2019-02-10T11:41:10.444Z,10.66
2019-02-10T11:42:10.432Z,10.66
2019-02-10T11:43:10.446Z,10.60
2019-02-10T11:44:10.410Z,10.63
2019-02-10T11:45:10.400Z,10.69
2019-02-10T11:46:10.388Z,10.68
2019-02-10T11:47:10.382Z,10.68
2019-02-10T11:48:10.391Z,10.68
2019-02-10T11:49:10.355Z,10.72
2019-02-10T11:50:10.345Z,10.68
2019-02-10T11:51:10.333Z,10.75
2019-02-10T11:52:10.322Z,10.76
2019-02-10T11:53:10.333Z,10.73
2019-02-10T11:54:10.300Z,10.68
2019-02-10T11:55:10.287Z,10.72
2019-02-10T11:56:10.276Z,10.76
2019-02-10T11:57:10.267Z,10.86
2019-02-10T11:58:10.279Z,10.83
2019-02-10T11:59:10.246Z,10.78
2019-02-10T12:00:10.239Z,10.78
2019-02-10T12:01:10.226Z,10.78
2019-02-10T12:02:10.211Z,10.86
2019-02-10T12:03:10.223Z,10.78
2019-02-10T12:04:10.190Z,10.80
2019-02-10T12:05:10.179Z,10.95
2019-02-10T12:06:10.166Z,10.86
2019-02-10T12:07:10.154Z,10.90
2019-02-10T12:08:10.166Z,10.84
2019-02-10T12:09:10.132Z,10.88
2019-02-10T12:10:10.121Z,10.83
2019-02-10T12:11:10.110Z,10.88
2019-02-10T12:12:10.099Z,10.87
2019-02-10T12:13:10.115Z,10.80
2019-02-10T12:14:10.076Z,10.81
2019-02-10T12:15:10.066Z,10.91
2019-02-10T12:16:10.054Z,10.93
2019-02-10T12:17:10.044Z,10.88
2019-02-10T12:18:10.056Z,10.78
2019-02-10T12:19:10.020Z,10.73
2019-02-10T12:20:10.011Z,10.75
2019-02-10T12:21:09.998Z,10.66
2019-02-10T12:22:09.990Z,10.68
2019-02-10T12:23:09.999Z,10.60
2019-02-10T12:24:09.966Z,10.65
2019-02-10T12:25:09.954Z,10.58
2019-02-10T12:26:09.942Z,10.58
2019-02-10T12:27:09.931Z,10.49
2019-02-10T12:28:09.945Z,10.51
2019-02-10T12:29:09.910Z,10.44
2019-02-10T12:30:09.898Z,10.36
2019-02-10T12:31:09.887Z,10.34
2019-02-10T12:32:09.875Z,10.32
2019-02-10T12:33:09.891Z,10.36
2019-02-10T12:34:09.854Z,10.29
2019-02-10T12:35:09.848Z,10.28
2019-02-10T12:36:09.852Z,10.22
2019-02-10T12:37:09.820Z,10.24
2019-02-10T12:38:09.833Z,10.18
2019-02-10T12:39:09.797Z,10.17
2019-02-10T12:40:09.785Z,10.13
2019-02-10T12:41:09.776Z,10.14
2019-02-10T12:42:09.764Z,10.07
2019-02-10T12:43:09.755Z,10.06
2019-02-10T12:44:09.766Z,10.09
2019-02-10T12:45:09.733Z,10.10
2019-02-10T12:46:09.719Z,10.04
2019-02-10T12:47:09.709Z,10.01
2019-02-10T12:48:09.699Z,10.04
2019-02-10T12:49:09.711Z,10.10
2019-02-10T12:50:09.678Z,10.09
2019-02-10T12:51:09.665Z,10.09
2019-02-10T12:52:09.653Z,10.13
2019-02-10T12:53:09.646Z,10.10
2019-02-10T12:54:09.656Z,10.09
2019-02-10T12:55:09.619Z,10.14
2019-02-10T12:56:09.608Z,10.17
2019-02-10T12:57:09.597Z,10.17
2019-02-10T12:58:09.588Z,10.11
2019-02-10T12:59:09.597Z,10.17
2019-02-10T13:00:09.573Z,10.11
2019-02-10T13:01:09.552Z,10.10
2019-02-10T13:02:09.540Z,10.10
2019-02-10T13:03:09.530Z,10.13
2019-02-10T13:04:09.542Z,10.17